Time;durP1;ratioP1;P1;durP2;ratioP2;P2;SDS_P1;SDS_P2;PMS_P1;PMS_P2;Temp;Humidity;BMP_temperature;BMP_pressure;BME280_temperature;BME280_humidity;BME280_pressure;Samples;Min_cycle;Max_cycle;Signal;HPM_P1;HPM_P2
2022/12/02 00:01:51;;;;;;;47.47;21.77;;;4.00;99.90;;;;;;6267869;22;20091;-85
2022/12/02 00:04:23;;;;;;;46.80;21.50;;;4.00;99.90;;;;;;6266964;22;20083;-85
2022/12/02 00:06:51;;;;;;;43.03;22.13;;;4.00;99.90;;;;;;6241659;22;20016;-85
2022/12/02 00:09:31;;;;;;;42.28;19.90;;;4.00;99.90;;;;;;6269574;22;20019;-85
2022/12/02 00:11:59;;;;;;;48.63;20.48;;;4.10;99.90;;;;;;6267629;22;20015;-85
2022/12/02 00:14:28;;;;;;;40.65;19.92;;;4.00;99.90;;;;;;6267987;22;20016;-85
2022/12/02 00:16:54;;;;;;;45.33;20.92;;;4.00;99.90;;;;;;6269310;22;20391;-85
2022/12/02 00:19:20;;;;;;;44.42;21.20;;;4.00;99.90;;;;;;6269273;22;20058;-85
2022/12/02 00:21:47;;;;;;;42.85;19.80;;;4.00;99.90;;;;;;6272056;22;20114;-85
2022/12/02 00:24:13;;;;;;;44.72;20.60;;;4.00;99.90;;;;;;6274925;22;20103;-85
2022/12/02 00:26:38;;;;;;;47.28;20.48;;;4.00;99.90;;;;;;6274651;22;20048;-85
2022/12/02 00:29:04;;;;;;;41.90;20.27;;;4.00;99.90;;;;;;6275318;22;20450;-85
2022/12/02 00:31:30;;;;;;;47.90;21.20;;;4.00;99.90;;;;;;6249452;22;20015;-85
2022/12/02 00:33:56;;;;;;;42.13;20.10;;;4.00;99.90;;;;;;6273669;22;20015;-85
2022/12/02 00:36:22;;;;;;;44.42;19.58;;;4.00;99.90;;;;;;6249824;22;20288;-85
2022/12/02 00:38:48;;;;;;;46.20;20.45;;;3.90;99.90;;;;;;6301734;22;20007;-85
2022/12/02 00:41:14;;;;;;;45.30;21.23;;;4.00;99.90;;;;;;6302251;22;20329;-85
2022/12/02 00:46:33;;;;;;;41.38;18.83;;;3.90;99.90;;;;;;6275125;22;20019;-85
2022/12/02 00:49:02;;;;;;;40.35;18.08;;;3.90;99.90;;;;;;6301835;22;20054;-85
2022/12/02 00:51:28;;;;;;;34.70;16.48;;;3.90;99.90;;;;;;6275167;22;20016;-85
2022/12/02 00:53:54;;;;;;;38.80;17.58;;;3.90;99.90;;;;;;6274072;22;20015;-85
2022/12/02 00:56:19;;;;;;;33.35;16.20;;;3.90;99.90;;;;;;6274389;22;20007;-85
2022/12/02 00:58:45;;;;;;;33.25;15.30;;;3.90;99.90;;;;;;6275022;22;20022;-85
2022/12/02 01:01:11;;;;;;;34.63;15.23;;;3.90;99.90;;;;;;6274200;22;20019;-85
2022/12/02 01:03:37;;;;;;;29.40;13.35;;;3.90;99.90;;;;;;6302538;22;20011;-85
2022/12/02 01:06:02;;;;;;;37.28;15.30;;;3.80;99.90;;;;;;6275005;22;20376;-85
2022/12/02 01:08:28;;;;;;;30.90;14.68;;;3.80;99.90;;;;;;6275298;22;20007;-85
2022/12/02 01:10:56;;;;;;;29.02;14.35;;;3.80;99.90;;;;;;6301913;22;20064;-85
2022/12/02 01:13:22;;;;;;;33.47;15.07;;;3.80;99.90;;;;;;6274664;22;20054;-85
2022/12/02 01:15:49;;;;;;;33.25;14.32;;;3.80;99.90;;;;;;6274315;22;20054;-85
2022/12/02 01:18:15;;;;;;;27.73;13.88;;;3.80;99.90;;;;;;6302169;22;20042;-85
2022/12/02 01:20:41;;;;;;;31.48;14.23;;;3.80;99.90;;;;;;6274742;22;20011;-85
2022/12/02 01:23:07;;;;;;;30.63;13.82;;;3.80;99.90;;;;;;6274156;22;20017;-85
2022/12/02 01:25:33;;;;;;;34.58;16.10;;;3.80;99.90;;;;;;6274660;22;20011;-85
2022/12/02 01:27:58;;;;;;;40.28;17.23;;;3.80;99.90;;;;;;6274747;22;20007;-85
2022/12/02 01:30:24;;;;;;;39.65;17.17;;;3.80;99.90;;;;;;6274274;22;20011;-85
2022/12/02 01:32:50;;;;;;;37.78;17.88;;;3.80;99.90;;;;;;6249379;22;20400;-85
2022/12/02 01:35:16;;;;;;;39.47;17.92;;;3.80;99.90;;;;;;6302587;22;20011;-84
2022/12/02 01:37:41;;;;;;;37.00;17.55;;;3.80;99.90;;;;;;6301937;22;20261;-84
2022/12/02 01:40:09;;;;;;;36.78;15.52;;;3.70;99.90;;;;;;6249020;22;20054;-85
2022/12/02 01:42:35;;;;;;;35.05;15.35;;;3.70;99.90;;;;;;6302246;22;20012;-85
2022/12/02 01:45:01;;;;;;;28.92;15.30;;;3.70;99.90;;;;;;6273571;22;20015;-85
2022/12/02 01:47:27;;;;;;;29.70;12.88;;;3.70;99.90;;;;;;6274308;22;20007;-85
2022/12/02 01:49:53;;;;;;;34.85;14.93;;;3.70;99.90;;;;;;6301801;22;20011;-85
2022/12/02 01:52:19;;;;;;;32.60;14.23;;;3.70;99.90;;;;;;6275236;22;20008;-85
2022/12/02 01:54:44;;;;;;;31.90;13.73;;;3.70;99.90;;;;;;6274460;22;20020;-84
2022/12/02 01:57:13;;;;;;;26.95;13.45;;;4.40;99.90;;;;;;6273590;22;20050;-85
2022/12/02 01:59:40;;;;;;;31.02;14.88;;;3.70;99.90;;;;;;6301313;22;20094;-85
2022/12/02 02:02:25;;;;;;;34.20;14.82;;;3.60;99.90;;;;;;6274685;22;20016;-85
2022/12/02 02:04:52;;;;;;;36.10;14.70;;;3.70;99.90;;;;;;6301901;22;20015;-85
2022/12/02 02:07:18;;;;;;;33.72;14.98;;;3.60;99.90;;;;;;6275680;22;20090;-85
2022/12/02 02:09:44;;;;;;;32.40;15.52;;;3.60;99.90;;;;;;6276337;22;20053;-85
2022/12/02 02:12:09;;;;;;;34.45;16.00;;;3.60;99.90;;;;;;6276324;22;20033;-85
2022/12/02 02:14:35;;;;;;;32.40;15.60;;;3.60;99.90;;;;;;6303109;22;20019;-85
2022/12/02 02:17:01;;;;;;;39.17;16.30;;;3.50;99.90;;;;;;6275878;22;20011;-85
2022/12/02 02:19:26;;;;;;;38.20;16.90;;;3.50;99.90;;;;;;6304408;22;20012;-85
2022/12/02 02:21:54;;;;;;;38.58;16.77;;;3.50;99.90;;;;;;6304557;22;20019;-85
2022/12/02 02:24:19;;;;;;;37.05;15.77;;;3.50;99.90;;;;;;6303794;22;20022;-85
2022/12/02 02:26:45;;;;;;;37.40;16.33;;;3.50;99.90;;;;;;6275899;22;20019;-85
2022/12/02 02:29:11;;;;;;;32.92;15.10;;;3.50;99.90;;;;;;6275821;22;20015;-85
2022/12/02 02:31:37;;;;;;;41.42;17.92;;;4.00;99.90;;;;;;6303491;22;20450;-85
2022/12/02 02:34:02;;;;;;;38.70;17.42;;;3.50;99.90;;;;;;6275483;22;20094;-85
2022/12/02 02:36:28;;;;;;;42.65;17.98;;;3.50;99.90;;;;;;6275342;22;20019;-85
2022/12/02 02:38:54;;;;;;;38.80;16.58;;;3.50;99.90;;;;;;6275050;22;20338;-85
2022/12/02 02:41:21;;;;;;;40.05;16.42;;;3.50;99.90;;;;;;6276777;22;20064;-85
2022/12/02 02:43:47;;;;;;;39.63;16.35;;;3.50;99.90;;;;;;6303181;22;20011;-85
2022/12/02 02:46:12;;;;;;;41.72;17.27;;;3.50;99.90;;;;;;6275861;22;20015;-84
2022/12/02 02:48:38;;;;;;;41.15;18.10;;;3.60;99.90;;;;;;6303226;22;20061;-85
2022/12/02 02:51:05;;;;;;;42.90;19.13;;;3.60;99.90;;;;;;6303975;22;20022;-85
2022/12/02 02:53:31;;;;;;;41.17;18.50;;;3.50;99.90;;;;;;6276371;22;20015;-84
2022/12/02 02:55:57;;;;;;;43.40;19.17;;;3.50;99.90;;;;;;6303755;22;20382;-85
2022/12/02 02:58:24;;;;;;;38.80;18.67;;;3.50;99.90;;;;;;6303022;22;20436;-85
2022/12/02 03:01:06;;;;;;;43.03;19.02;;;3.50;99.90;;;;;;6303407;22;20038;-85
2022/12/02 03:03:35;;;;;;;42.58;19.73;;;3.50;99.90;;;;;;6275067;22;20026;-85
2022/12/02 03:06:03;;;;;;;40.65;18.80;;;3.50;99.90;;;;;;6274182;22;20072;-85
2022/12/02 03:08:32;;;;;;;38.40;17.75;;;3.50;99.90;;;;;;6275397;22;20120;-84
2022/12/02 03:11:00;;;;;;;42.05;19.10;;;3.50;99.90;;;;;;6275411;22;20023;-85
2022/12/02 03:13:28;;;;;;;43.08;19.50;;;3.50;99.90;;;;;;6274147;22;20026;-84
2022/12/02 03:15:54;;;;;;;42.05;18.35;;;3.50;99.90;;;;;;6274911;22;20009;-85
2022/12/02 03:18:20;;;;;;;37.95;17.63;;;3.40;99.90;;;;;;6274735;22;20022;-85
2022/12/02 03:20:46;;;;;;;41.53;18.83;;;3.40;99.90;;;;;;6303512;22;20007;-84
2022/12/02 03:23:13;;;;;;;38.55;18.27;;;3.40;99.90;;;;;;6303049;22;20065;-85
2022/12/02 03:25:38;;;;;;;42.05;18.58;;;3.40;99.90;;;;;;6303072;22;20015;-85
2022/12/02 03:28:05;;;;;;;44.25;18.48;;;3.40;99.90;;;;;;6303192;22;20072;-85
2022/12/02 03:30:31;;;;;;;39.83;18.13;;;3.40;99.90;;;;;;6303071;22;20076;-85
2022/12/02 03:32:57;;;;;;;40.80;18.23;;;3.40;99.90;;;;;;6275490;22;20446;-85
2022/12/02 03:35:24;;;;;;;38.97;18.13;;;3.40;99.90;;;;;;6302794;22;20018;-85
2022/12/02 03:37:49;;;;;;;40.35;17.20;;;3.40;99.90;;;;;;6303075;22;20023;-84
2022/12/02 03:40:15;;;;;;;37.30;17.15;;;3.40;99.90;;;;;;6303538;22;20011;-85
2022/12/02 03:42:41;;;;;;;38.15;17.40;;;3.40;99.90;;;;;;6302448;22;20030;-85
2022/12/02 03:45:08;;;;;;;36.60;17.35;;;3.40;99.90;;;;;;6303605;22;20018;-85
2022/12/02 03:47:34;;;;;;;39.15;17.55;;;3.40;99.90;;;;;;6303003;22;20038;-84
2022/12/02 03:50:01;;;;;;;39.55;17.42;;;3.40;99.90;;;;;;6303377;22;20007;-85
2022/12/02 03:52:28;;;;;;;35.22;16.20;;;3.40;99.90;;;;;;6275492;22;20094;-85
2022/12/02 03:54:54;;;;;;;38.58;16.83;;;3.40;99.90;;;;;;6275683;22;20027;-85
2022/12/02 03:57:19;;;;;;;39.45;17.30;;;3.30;99.90;;;;;;6274774;22;20011;-85
2022/12/02 03:59:45;;;;;;;39.00;18.13;;;3.40;99.90;;;;;;6275544;22;20072;-84
2022/12/02 04:02:11;;;;;;;35.47;16.13;;;3.30;99.90;;;;;;6275758;22;20396;-85
2022/12/02 04:04:36;;;;;;;40.08;16.90;;;3.30;99.90;;;;;;6276128;22;20011;-85
2022/12/02 04:07:02;;;;;;;36.45;17.35;;;3.30;99.90;;;;;;6275257;22;20015;-85
2022/12/02 04:09:28;;;;;;;40.83;16.50;;;3.30;99.90;;;;;;6302776;22;20020;-85
2022/12/02 04:11:53;;;;;;;40.03;18.17;;;3.30;99.90;;;;;;6249337;22;20007;-85
2022/12/02 04:14:19;;;;;;;37.42;17.27;;;3.30;99.90;;;;;;6275386;22;20003;-85
2022/12/02 04:16:45;;;;;;;43.30;17.38;;;3.30;99.90;;;;;;6275442;22;20022;-85
2022/12/02 04:19:12;;;;;;;41.22;17.75;;;3.20;99.90;;;;;;6275447;22;20088;-85
2022/12/02 04:21:37;;;;;;;43.78;18.02;;;3.20;99.90;;;;;;6302716;22;20011;-85
2022/12/02 04:24:03;;;;;;;41.75;18.25;;;3.20;99.90;;;;;;6275330;22;20046;-85
2022/12/02 04:26:29;;;;;;;44.78;16.70;;;3.20;99.90;;;;;;6301807;22;20018;-85
2022/12/02 04:28:54;;;;;;;41.33;17.23;;;3.20;99.90;;;;;;6302953;22;20015;-85
2022/12/02 04:31:20;;;;;;;47.33;19.45;;;3.20;99.90;;;;;;6302726;22;20007;-85
2022/12/02 04:33:46;;;;;;;45.92;19.27;;;3.20;99.90;;;;;;6302885;22;20007;-85
2022/12/02 04:36:11;;;;;;;47.88;19.63;;;3.20;99.90;;;;;;6274907;22;20432;-85
2022/12/02 04:38:37;;;;;;;48.33;19.77;;;3.20;99.90;;;;;;6275187;22;20011;-85
2022/12/02 04:41:02;;;;;;;44.20;19.33;;;3.20;99.90;;;;;;6274321;22;20069;-85
2022/12/02 04:43:28;;;;;;;46.70;20.10;;;3.20;99.90;;;;;;6302513;22;20076;-85
2022/12/02 04:45:54;;;;;;;45.35;18.75;;;3.10;99.90;;;;;;6303007;22;20011;-84
2022/12/02 04:48:19;;;;;;;47.90;18.42;;;3.10;99.90;;;;;;6275319;22;20019;-85
2022/12/02 04:50:45;;;;;;;48.70;19.63;;;3.20;99.90;;;;;;6275049;22;20023;-85
2022/12/02 04:53:11;;;;;;;44.33;19.52;;;3.20;99.90;;;;;;6274663;22;20011;-85
2022/12/02 04:55:36;;;;;;;47.22;18.83;;;3.10;99.90;;;;;;6274753;22;20050;-85
2022/12/02 04:58:02;;;;;;;44.40;19.27;;;3.10;99.90;;;;;;6302760;22;20068;-85
2022/12/02 05:00:28;;;;;;;46.72;19.55;;;3.10;99.90;;;;;;6301797;22;20023;-85
2022/12/02 05:02:54;;;;;;;48.40;20.17;;;3.10;99.90;;;;;;6275033;22;20019;-85
2022/12/02 05:05:19;;;;;;;47.42;19.83;;;3.10;99.90;;;;;;6274381;22;20392;-84
2022/12/02 05:07:45;;;;;;;46.63;19.15;;;3.10;99.90;;;;;;6274108;22;20022;-85
2022/12/02 05:10:11;;;;;;;48.22;19.75;;;3.10;99.90;;;;;;6302765;22;20018;-85
2022/12/02 05:12:36;;;;;;;41.90;18.80;;;3.10;99.90;;;;;;6249219;22;20095;-85
2022/12/02 05:15:02;;;;;;;47.00;20.40;;;3.10;99.90;;;;;;6274367;22;20439;-85
2022/12/02 05:17:29;;;;;;;48.65;20.10;;;3.10;99.90;;;;;;6275161;22;20015;-85
2022/12/02 05:19:55;;;;;;;46.88;20.23;;;3.10;99.90;;;;;;6274985;22;20053;-84
2022/12/02 05:22:21;;;;;;;47.90;20.17;;;3.10;99.90;;;;;;6301459;22;20011;-85
2022/12/02 05:24:47;;;;;;;45.95;20.33;;;3.00;99.90;;;;;;6275152;22;20025;-85
2022/12/02 05:27:13;;;;;;;47.25;19.85;;;3.10;99.90;;;;;;6248957;22;20027;-85
2022/12/02 05:29:38;;;;;;;46.83;20.55;;;3.10;99.90;;;;;;6274869;22;20046;-84
2022/12/02 05:32:04;;;;;;;44.35;19.92;;;3.10;99.90;;;;;;6302716;22;20322;-84
2022/12/02 05:34:30;;;;;;;45.55;19.15;;;3.10;99.90;;;;;;6248905;22;20047;-84
2022/12/02 05:36:55;;;;;;;50.05;20.13;;;3.10;99.90;;;;;;6273797;22;20015;-85
2022/12/02 05:39:21;;;;;;;52.22;20.55;;;3.10;99.90;;;;;;6274814;22;20061;-85
2022/12/02 05:41:47;;;;;;;52.65;19.95;;;3.10;99.90;;;;;;6275937;22;20007;-85
2022/12/02 05:44:19;;;;;;;49.67;20.55;;;3.10;99.90;;;;;;6277019;22;20446;-85
2022/12/02 05:46:45;;;;;;;50.85;21.55;;;3.10;99.90;;;;;;6277885;22;20127;-84
2022/12/02 05:49:22;;;;;;;48.63;21.77;;;3.10;99.90;;;;;;6276877;22;20022;-85
2022/12/02 05:51:59;;;;;;;50.25;20.88;;;3.10;99.90;;;;;;6304961;22;20026;-85
2022/12/02 05:54:27;;;;;;;44.33;19.75;;;3.10;99.90;;;;;;6277680;22;20089;-84
2022/12/02 05:56:54;;;;;;;47.42;20.25;;;3.10;99.90;;;;;;6277707;22;20449;-84
2022/12/02 05:59:21;;;;;;;50.47;22.52;;;3.40;99.90;;;;;;6277320;22;20011;-83
2022/12/02 06:01:50;;;;;;;51.90;19.90;;;3.20;99.90;;;;;;6307420;22;20003;-84
2022/12/02 06:04:21;;;;;;;50.13;20.92;;;3.20;99.90;;;;;;6280902;22;20496;-84
2022/12/02 06:06:47;;;;;;;57.95;22.08;;;3.20;99.90;;;;;;6280878;22;20084;-86
2022/12/02 06:09:16;;;;;;;56.47;21.98;;;3.20;99.90;;;;;;6281926;22;20441;-85
2022/12/02 06:11:43;;;;;;;47.92;20.58;;;3.20;99.90;;;;;;6307707;22;20469;-85
2022/12/02 06:14:19;;;;;;;52.10;20.52;;;3.30;99.90;;;;;;6309270;22;20008;-86
2022/12/02 06:16:58;;;;;;;58.45;21.98;;;3.20;99.90;;;;;;6255833;22;20007;-85
2022/12/02 06:19:33;;;;;;;52.75;21.48;;;3.20;99.90;;;;;;6280886;22;20011;-86
2022/12/02 06:22:00;;;;;;;44.85;18.92;;;3.30;99.90;;;;;;6282206;22;20025;-85
2022/12/02 06:24:29;;;;;;;56.53;21.00;;;3.30;99.90;;;;;;6281385;22;20023;-85
2022/12/02 06:27:01;;;;;;;52.10;20.30;;;3.30;99.90;;;;;;6256352;22;20106;-85
2022/12/02 06:29:30;;;;;;;48.30;21.02;;;3.30;99.90;;;;;;6281451;22;20049;-85
2022/12/02 06:31:58;;;;;;;52.55;20.55;;;3.30;99.90;;;;;;6280865;22;20011;-85
2022/12/02 06:34:35;;;;;;;57.63;20.60;;;3.30;99.90;;;;;;6308645;22;20008;-85
2022/12/02 06:37:22;;;;;;;49.50;19.38;;;3.30;99.90;;;;;;6281116;22;20086;-85
2022/12/02 06:39:54;;;;;;;52.30;20.42;;;3.30;99.90;;;;;;6282079;22;20025;-85
2022/12/02 06:42:33;;;;;;;53.05;21.40;;;4.50;99.90;;;;;;6304625;22;20033;-86
2022/12/02 06:45:23;;;;;;;51.65;20.90;;;3.30;99.90;;;;;;6278237;22;20015;-86
2022/12/02 06:48:00;;;;;;;52.05;20.25;;;3.40;99.90;;;;;;6278125;22;20007;-84
2022/12/02 06:50:50;;;;;;;55.65;21.73;;;3.30;99.90;;;;;;6305288;22;20011;-87
2022/12/02 06:53:40;;;;;;;54.78;21.67;;;3.40;99.90;;;;;;6275109;22;20548;-85
2022/12/02 06:56:15;;;;;;;50.45;20.77;;;3.30;99.90;;;;;;6264538;22;20026;-86
2022/12/02 06:58:43;;;;;;;56.30;21.27;;;3.40;99.90;;;;;;6276355;22;20025;-86
2022/12/02 07:01:15;;;;;;;54.83;20.67;;;3.40;99.90;;;;;;6276318;22;20012;-86
2022/12/02 07:03:47;;;;;;;51.78;20.50;;;3.40;99.90;;;;;;6302517;22;20026;-85
2022/12/02 07:06:19;;;;;;;55.80;21.77;;;3.40;99.90;;;;;;6303451;22;20073;-88
2022/12/02 07:08:45;;;;;;;52.83;21.80;;;3.40;99.90;;;;;;6275553;22;20047;-87
2022/12/02 07:11:20;;;;;;;53.90;22.75;;;3.40;99.90;;;;;;6303728;22;20011;-86
2022/12/02 07:13:47;;;;;;;53.28;21.95;;;3.40;99.90;;;;;;6302622;22;20016;-83
2022/12/02 07:16:50;;;;;;;52.88;21.35;;;3.40;99.90;;;;;;6302406;22;20028;-87
2022/12/02 07:19:19;;;;;;;50.72;20.65;;;3.40;99.90;;;;;;6207498;23;20017;-83
2022/12/02 07:21:45;;;;;;;51.67;21.38;;;3.40;99.90;;;;;;6183681;23;20091;-86
2022/12/02 07:24:16;;;;;;;48.30;21.75;;;3.30;99.90;;;;;;6209155;23;20020;-89
2022/12/02 07:26:44;;;;;;;55.83;21.42;;;3.30;99.90;;;;;;6208859;23;20020;-90
2022/12/02 07:29:14;;;;;;;48.97;20.35;;;3.30;99.90;;;;;;6208764;23;20582;-90
2022/12/02 07:31:43;;;;;;;50.88;20.17;;;3.30;99.90;;;;;;6208602;23;20510;-88
2022/12/02 07:34:11;;;;;;;51.90;20.90;;;3.30;99.90;;;;;;6208263;23;20452;-91
2022/12/02 07:36:36;;;;;;;53.92;19.90;;;3.30;99.90;;;;;;6208084;23;20019;-88
2022/12/02 07:39:02;;;;;;;51.63;20.17;;;3.30;99.90;;;;;;6183961;23;20060;-89
2022/12/02 07:41:28;;;;;;;51.58;20.10;;;3.30;99.90;;;;;;6208888;23;20023;-89
2022/12/02 07:43:53;;;;;;;54.97;19.70;;;3.30;99.90;;;;;;6181352;23;20012;-87
2022/12/02 07:46:19;;;;;;;51.63;20.98;;;3.30;99.90;;;;;;6206568;23;20090;-87
2022/12/02 07:48:45;;;;;;;57.53;19.80;;;3.30;99.90;;;;;;6208097;23;20023;-88
2022/12/02 07:51:11;;;;;;;43.58;18.45;;;3.20;99.90;;;;;;6208495;23;20013;-87
2022/12/02 07:53:36;;;;;;;52.75;19.52;;;3.20;99.90;;;;;;6271726;22;20022;-87
2022/12/02 07:56:03;;;;;;;52.10;19.88;;;3.20;99.90;;;;;;6303601;22;20016;-88
2022/12/02 07:58:28;;;;;;;56.45;20.05;;;3.20;99.90;;;;;;6302588;22;20011;-89
2022/12/02 08:00:54;;;;;;;52.72;20.88;;;3.20;99.90;;;;;;6303276;22;20011;-87
2022/12/02 08:03:20;;;;;;;52.40;20.83;;;3.20;99.90;;;;;;6301913;22;20076;-88
2022/12/02 08:05:45;;;;;;;56.25;19.55;;;3.20;99.90;;;;;;6301687;22;20022;-87
2022/12/02 08:08:11;;;;;;;57.90;21.05;;;3.10;99.90;;;;;;6302495;22;20510;-88
2022/12/02 08:10:36;;;;;;;50.20;19.58;;;3.10;99.90;;;;;;6303443;22;20019;-88
2022/12/02 08:13:02;;;;;;;48.15;19.60;;;3.10;99.90;;;;;;6303581;22;20061;-88
2022/12/02 08:15:27;;;;;;;45.67;18.13;;;3.10;99.90;;;;;;6303612;22;20060;-87
2022/12/02 08:17:53;;;;;;;51.25;20.85;;;3.10;99.90;;;;;;6301814;22;20362;-87
2022/12/02 08:20:19;;;;;;;50.45;20.15;;;3.10;99.90;;;;;;6303306;22;20007;-87
2022/12/02 08:22:44;;;;;;;55.28;21.15;;;3.80;99.90;;;;;;6302045;22;20084;-87
2022/12/02 08:25:10;;;;;;;54.80;20.77;;;3.10;99.90;;;;;;6302325;22;20065;-87
2022/12/02 08:27:39;;;;;;;53.83;20.15;;;3.10;99.90;;;;;;6275183;22;20023;-88
2022/12/02 08:30:06;;;;;;;50.20;20.40;;;3.10;99.90;;;;;;6303067;22;20243;-88
2022/12/02 08:32:32;;;;;;;49.78;17.42;;;3.10;99.90;;;;;;6302334;22;20011;-87
2022/12/02 08:34:57;;;;;;;46.13;18.80;;;3.10;99.90;;;;;;6301352;22;20534;-88
2022/12/02 08:37:23;;;;;;;45.53;17.92;;;3.10;99.90;;;;;;6302406;22;20042;-87
2022/12/02 08:39:49;;;;;;;45.58;18.35;;;3.10;99.90;;;;;;6302652;22;20011;-87
2022/12/02 08:42:14;;;;;;;45.38;17.05;;;3.10;99.90;;;;;;6302473;22;20008;-87
2022/12/02 08:44:40;;;;;;;45.53;19.33;;;3.10;99.90;;;;;;6302558;22;20038;-87
2022/12/02 08:47:05;;;;;;;45.33;18.17;;;3.10;99.90;;;;;;6302062;22;20015;-88
2022/12/02 08:49:31;;;;;;;45.60;16.65;;;3.10;99.90;;;;;;6303063;22;20012;-87
2022/12/02 08:51:56;;;;;;;44.72;17.70;;;3.00;99.90;;;;;;6302956;22;20013;-87
2022/12/02 08:54:22;;;;;;;40.05;16.85;;;3.00;99.90;;;;;;6302709;22;20027;-88
2022/12/02 08:56:48;;;;;;;45.38;17.55;;;3.10;99.90;;;;;;6301959;22;20430;-87
2022/12/02 08:59:14;;;;;;;52.60;18.27;;;3.10;99.90;;;;;;6303389;22;20034;-87
2022/12/02 09:01:39;;;;;;;45.83;16.30;;;3.10;99.90;;;;;;6301374;22;20011;-88
2022/12/02 09:04:05;;;;;;;43.38;16.80;;;3.10;99.90;;;;;;6302946;22;20026;-88
2022/12/02 09:06:31;;;;;;;40.63;16.70;;;3.10;99.90;;;;;;6301872;22;20015;-87
2022/12/02 09:08:56;;;;;;;44.85;16.60;;;3.00;99.90;;;;;;6302766;22;20011;-87
2022/12/02 09:11:22;;;;;;;50.00;19.25;;;3.00;99.90;;;;;;6302622;22;20073;-87
2022/12/02 09:13:48;;;;;;;46.70;16.85;;;3.10;99.90;;;;;;6302862;22;20050;-87
2022/12/02 09:16:13;;;;;;;42.13;15.55;;;3.10;99.90;;;;;;6301971;22;20494;-87
2022/12/02 09:18:39;;;;;;;45.40;18.88;;;3.00;99.90;;;;;;6302437;22;20018;-87
2022/12/02 09:21:05;;;;;;;45.78;16.33;;;3.00;99.90;;;;;;6301521;22;20457;-87
2022/12/02 09:23:30;;;;;;;48.95;17.90;;;3.00;99.90;;;;;;6301116;22;20098;-88
2022/12/02 09:25:56;;;;;;;53.28;19.00;;;3.10;99.90;;;;;;6302432;22;20326;-87
2022/12/02 09:28:22;;;;;;;49.30;18.67;;;3.00;99.90;;;;;;6302694;22;20120;-88
2022/12/02 09:30:49;;;;;;;47.83;18.52;;;3.10;99.90;;;;;;6302624;22;20014;-88
2022/12/02 09:33:15;;;;;;;54.10;18.20;;;3.10;99.90;;;;;;6302398;22;20015;-88
2022/12/02 09:35:40;;;;;;;51.20;18.77;;;3.20;99.90;;;;;;6302232;22;20456;-88
2022/12/02 09:38:06;;;;;;;41.15;16.48;;;3.20;99.90;;;;;;6302057;22;20065;-88
2022/12/02 09:40:33;;;;;;;46.15;17.63;;;3.30;99.90;;;;;;6303176;22;20015;-88
2022/12/02 09:43:00;;;;;;;52.90;19.35;;;3.30;99.90;;;;;;6302720;22;20011;-87
2022/12/02 09:45:25;;;;;;;53.88;19.55;;;3.40;99.90;;;;;;6302182;22;20046;-88
2022/12/02 09:47:52;;;;;;;44.67;18.35;;;3.40;99.90;;;;;;6274306;22;20018;-87
2022/12/02 09:50:17;;;;;;;51.67;19.40;;;3.50;99.90;;;;;;6301842;22;20007;-87
2022/12/02 09:52:44;;;;;;;49.03;18.23;;;3.50;99.90;;;;;;6301941;22;20008;-88
2022/12/02 09:55:16;;;;;;;54.45;19.92;;;3.50;99.90;;;;;;6298533;22;20020;-88
2022/12/02 09:57:42;;;;;;;48.47;19.05;;;3.50;99.90;;;;;;6300864;22;20050;-86
2022/12/02 10:00:19;;;;;;;54.67;20.40;;;3.50;99.90;;;;;;6301245;22;20011;-87
2022/12/02 10:02:47;;;;;;;50.38;20.10;;;3.50;99.90;;;;;;6302702;22;20007;-88
2022/12/02 10:05:23;;;;;;;50.05;20.83;;;3.40;99.90;;;;;;6300997;22;20019;-87
2022/12/02 10:07:50;;;;;;;53.97;21.35;;;3.40;99.90;;;;;;6301940;22;20004;-88
2022/12/02 10:10:20;;;;;;;52.15;21.50;;;3.40;99.90;;;;;;6273903;22;20019;-87
2022/12/02 10:12:46;;;;;;;54.78;21.45;;;3.40;99.90;;;;;;6300177;22;20011;-87
2022/12/02 10:15:17;;;;;;;46.50;18.83;;;3.40;99.90;;;;;;6302773;22;20021;-88
2022/12/02 10:17:44;;;;;;;55.45;19.65;;;3.40;99.90;;;;;;6302183;22;20019;-87
2022/12/02 10:20:22;;;;;;;48.95;19.98;;;3.40;99.90;;;;;;6302068;22;20030;-87
2022/12/02 10:23:11;;;;;;;51.05;20.83;;;3.40;99.90;;;;;;6301815;22;20015;-87
2022/12/02 10:25:39;;;;;;;58.33;20.75;;;3.40;99.90;;;;;;6301994;22;20434;-88
2022/12/02 10:28:16;;;;;;;56.33;19.67;;;3.40;99.90;;;;;;6304059;22;20003;-89
2022/12/02 10:30:53;;;;;;;51.25;20.33;;;3.30;99.90;;;;;;6303096;22;20026;-88
2022/12/02 10:33:22;;;;;;;50.92;20.52;;;3.40;99.90;;;;;;6303813;22;20019;-88
2022/12/02 10:35:50;;;;;;;54.35;21.35;;;3.30;99.90;;;;;;6302967;22;20011;-86
2022/12/02 10:38:34;;;;;;;50.40;20.83;;;3.30;99.90;;;;;;6302622;22;20454;-86
2022/12/02 10:41:29;;;;;;;60.38;22.10;;;3.30;99.90;;;;;;6303935;22;20026;-87
2022/12/02 10:43:57;;;;;;;54.42;21.58;;;3.30;99.90;;;;;;6283615;22;20023;-86
2022/12/02 10:46:23;;;;;;;52.28;21.05;;;3.30;99.90;;;;;;6304373;22;20016;-85
2022/12/02 10:48:49;;;;;;;55.85;20.83;;;3.30;99.90;;;;;;6304355;22;20065;-86
2022/12/02 10:51:17;;;;;;;52.67;21.83;;;3.30;99.90;;;;;;6302901;22;20026;-87
2022/12/02 10:53:44;;;;;;;55.70;21.95;;;3.80;99.90;;;;;;6301468;22;20494;-85
2022/12/02 10:56:24;;;;;;;54.80;21.50;;;3.30;99.90;;;;;;6302088;22;20014;-86
2022/12/02 10:58:50;;;;;;;54.22;21.08;;;3.30;99.90;;;;;;6304686;22;20007;-88
2022/12/02 11:01:19;;;;;;;55.03;22.98;;;3.20;99.90;;;;;;6303837;22;20039;-88
2022/12/02 11:03:45;;;;;;;55.70;21.83;;;3.30;99.90;;;;;;6304073;22;20015;-88
2022/12/02 11:06:16;;;;;;;56.35;20.63;;;3.30;99.90;;;;;;6303871;22;20047;-88
2022/12/02 11:08:44;;;;;;;57.75;22.85;;;3.30;99.90;;;;;;6274769;22;20395;-85
2022/12/02 11:11:15;;;;;;;54.50;22.80;;;3.30;99.90;;;;;;6302536;22;20019;-85
2022/12/02 11:14:01;;;;;;;51.15;21.20;;;3.20;99.90;;;;;;6302349;22;20061;-84
2022/12/02 11:16:27;;;;;;;53.55;23.85;;;3.30;99.90;;;;;;6303798;22;20060;-86
2022/12/02 11:19:07;;;;;;;55.95;23.38;;;3.30;99.90;;;;;;6276919;22;20019;-85
2022/12/02 11:21:37;;;;;;;55.58;23.52;;;3.30;99.90;;;;;;6276976;22;20011;-86
2022/12/02 11:24:21;;;;;;;50.45;21.85;;;3.30;99.90;;;;;;6303728;22;20066;-85
2022/12/02 11:26:59;;;;;;;49.65;21.73;;;3.30;99.90;;;;;;6276066;22;20017;-85
2022/12/02 11:29:31;;;;;;;52.13;22.27;;;3.30;99.90;;;;;;6304480;22;20018;-86
2022/12/02 11:32:25;;;;;;;52.47;22.77;;;3.40;99.90;;;;;;6303651;22;20726;-86
2022/12/02 11:34:59;;;;;;;55.60;22.57;;;3.40;99.90;;;;;;6218283;22;20047;-85
2022/12/02 11:37:34;;;;;;;49.05;22.88;;;3.40;99.90;;;;;;6304283;22;20014;-85
2022/12/02 11:40:03;;;;;;;52.38;23.83;;;3.40;99.90;;;;;;6303212;22;20019;-87
2022/12/02 11:42:30;;;;;;;53.53;23.00;;;3.40;99.90;;;;;;6303670;22;20015;-86
2022/12/02 11:45:14;;;;;;;52.45;22.90;;;3.40;99.90;;;;;;6303912;22;20137;-86
2022/12/02 11:47:43;;;;;;;54.08;24.02;;;3.40;99.90;;;;;;6303962;22;20631;-87
2022/12/02 11:50:21;;;;;;;48.90;21.80;;;3.40;99.90;;;;;;6274617;22;20022;-87
2022/12/02 11:52:53;;;;;;;53.72;24.02;;;3.40;99.90;;;;;;6302997;22;20084;-87
2022/12/02 11:55:33;;;;;;;52.90;23.83;;;3.40;99.90;;;;;;6300185;22;20011;-87
2022/12/02 11:57:59;;;;;;;53.05;22.98;;;3.40;99.90;;;;;;6297023;22;20019;-87
2022/12/02 12:00:26;;;;;;;53.40;24.13;;;3.40;99.90;;;;;;6271435;22;20015;-86
2022/12/02 12:03:11;;;;;;;48.95;22.55;;;3.40;99.90;;;;;;6302069;22;20082;-88
2022/12/02 12:05:37;;;;;;;;;;;3.40;99.90;;;;;;6301937;22;20015;-86
2022/12/02 12:08:02;;;;;;;52.55;22.52;;;3.40;99.90;;;;;;6300341;22;19978;-86
2022/12/02 12:10:32;;;;;;;47.67;22.40;;;3.40;99.90;;;;;;6271109;22;20023;-87
2022/12/02 12:13:22;;;;;;;52.35;23.55;;;3.40;99.90;;;;;;6300802;22;20011;-87
2022/12/02 12:16:01;;;;;;;53.58;24.70;;;3.40;99.90;;;;;;6300621;22;20442;-87
2022/12/02 12:18:38;;;;;;;52.67;23.33;;;3.40;99.90;;;;;;6300124;22;20443;-87
2022/12/02 12:21:04;;;;;;;52.30;25.33;;;3.40;99.90;;;;;;6301655;22;20065;-87
2022/12/02 12:23:36;;;;;;;49.90;23.70;;;3.40;99.90;;;;;;6272531;22;20127;-87
2022/12/02 12:26:03;;;;;;;51.42;24.45;;;3.40;99.90;;;;;;6303124;22;20312;-86
2022/12/02 12:28:31;;;;;;;51.03;24.05;;;3.40;99.90;;;;;;6274324;22;20011;-86
2022/12/02 12:30:59;;;;;;;44.78;22.55;;;3.40;99.90;;;;;;6302596;22;20014;-87
2022/12/02 12:33:25;;;;;;;53.13;23.50;;;3.40;99.90;;;;;;6302242;22;20007;-87
2022/12/02 12:35:53;;;;;;;53.35;25.17;;;3.40;99.90;;;;;;6302733;22;20338;-86
2022/12/02 12:38:20;;;;;;;52.42;23.63;;;3.40;99.90;;;;;;6302529;22;20011;-87
2022/12/02 12:40:46;;;;;;;49.45;23.77;;;3.40;99.90;;;;;;6301678;22;20011;-86
2022/12/02 12:43:11;;;;;;;50.72;23.83;;;3.40;99.90;;;;;;6302913;22;20054;-87
2022/12/02 12:45:37;;;;;;;51.30;24.42;;;3.40;99.90;;;;;;6301804;22;20026;-87
2022/12/02 12:48:03;;;;;;;54.35;25.77;;;3.40;99.90;;;;;;6274320;22;20072;-87